createdAt,value
2019-01-17T00:00:31.816Z,414
2019-01-17T00:01:39.023Z,414
2019-01-17T00:02:46.221Z,413
2019-01-17T00:03:53.144Z,412
2019-01-17T00:05:00.359Z,412
2019-01-17T00:06:07.559Z,412
2019-01-17T00:07:14.485Z,411
2019-01-17T00:08:21.686Z,411
2019-01-17T00:09:28.886Z,410
2019-01-17T00:10:36.096Z,409
2019-01-17T00:11:43.290Z,408
2019-01-17T00:12:50.230Z,406
2019-01-17T00:13:57.153Z,405
2019-01-17T00:15:04.361Z,404
2019-01-17T00:16:11.292Z,404
2019-01-17T00:17:18.491Z,404
2019-01-17T00:18:25.697Z,404
2019-01-17T00:19:32.907Z,405
2019-01-17T00:20:40.108Z,404
2019-01-17T00:21:47.323Z,405
2019-01-17T00:22:54.523Z,404
2019-01-17T00:24:03.756Z,404
2019-01-17T00:25:10.953Z,404
2019-01-17T00:26:18.417Z,405
2019-01-17T00:27:25.614Z,404
2019-01-17T00:28:32.836Z,404
2019-01-17T00:29:39.766Z,405
2019-01-17T00:30:46.707Z,404
2019-01-17T00:31:53.638Z,404
2019-01-17T00:33:00.832Z,404
2019-01-17T00:34:07.774Z,403
2019-01-17T00:35:14.976Z,403
2019-01-17T00:36:22.180Z,403
2019-01-17T00:37:29.390Z,403
2019-01-17T00:38:36.591Z,403
2019-01-17T00:39:43.786Z,403
2019-01-17T00:40:50.990Z,403
2019-01-17T00:41:57.931Z,404
2019-01-17T00:43:05.142Z,403
2019-01-17T00:44:12.353Z,404
2019-01-17T00:45:19.276Z,403
2019-01-17T00:46:26.235Z,403
2019-01-17T00:47:33.163Z,403
2019-01-17T00:48:40.359Z,404
2019-01-17T00:49:47.291Z,403
2019-01-17T00:50:54.510Z,403
2019-01-17T00:52:01.703Z,404
2019-01-17T00:53:08.922Z,402
2019-01-17T00:54:16.131Z,403
2019-01-17T00:55:23.321Z,403
2019-01-17T00:56:30.523Z,404
2019-01-17T00:57:37.727Z,403
2019-01-17T00:58:44.676Z,402
2019-01-17T00:59:51.900Z,403
2019-01-17T01:00:59.095Z,403
2019-01-17T01:02:06.317Z,403
2019-01-17T01:03:13.519Z,403
2019-01-17T01:04:20.725Z,402
2019-01-17T01:05:27.653Z,402
2019-01-17T01:06:35.083Z,402
2019-01-17T01:07:42.279Z,403
2019-01-17T01:08:49.478Z,403
2019-01-17T01:09:56.675Z,402
2019-01-17T01:11:03.876Z,402
2019-01-17T01:12:11.089Z,402
2019-01-17T01:13:18.028Z,402
2019-01-17T01:14:25.233Z,403
2019-01-17T01:15:32.142Z,403
2019-01-17T01:16:39.339Z,403
2019-01-17T01:17:46.556Z,403
2019-01-17T01:18:53.758Z,401
2019-01-17T01:20:00.700Z,401
2019-01-17T01:21:07.651Z,401
2019-01-17T01:22:14.852Z,402
2019-01-17T01:23:22.049Z,403
2019-01-17T01:24:28.975Z,402
2019-01-17T01:25:35.899Z,402
2019-01-17T01:26:42.831Z,401
2019-01-17T01:27:50.047Z,402
2019-01-17T01:28:57.249Z,402
2019-01-17T01:30:04.473Z,403
2019-01-17T01:31:11.424Z,402
2019-01-17T01:32:18.639Z,402
2019-01-17T01:33:25.844Z,402
2019-01-17T01:34:32.772Z,403
2019-01-17T01:35:39.975Z,403
2019-01-17T01:36:47.180Z,403
2019-01-17T01:37:54.380Z,403
2019-01-17T01:39:01.583Z,403
2019-01-17T01:40:10.036Z,403
2019-01-17T01:41:17.241Z,403
2019-01-17T01:42:24.447Z,403
2019-01-17T01:43:31.653Z,404
2019-01-17T01:44:38.888Z,403
2019-01-17T01:45:46.105Z,403
2019-01-17T01:46:53.308Z,403
2019-01-17T01:48:00.206Z,404
2019-01-17T01:49:07.409Z,404
2019-01-17T01:50:14.334Z,403
2019-01-17T01:51:21.261Z,403
2019-01-17T01:52:28.468Z,404
2019-01-17T01:53:35.697Z,403
2019-01-17T01:54:42.897Z,403
2019-01-17T01:55:50.122Z,402
2019-01-17T01:56:57.323Z,402
2019-01-17T01:58:04.557Z,399
2019-01-17T01:59:11.769Z,399
2019-01-17T02:00:18.686Z,398
2019-01-17T02:01:25.883Z,396
2019-01-17T02:02:33.089Z,396
2019-01-17T02:03:40.297Z,395
2019-01-17T02:04:46.963Z,396
2019-01-17T02:05:54.164Z,395
2019-01-17T02:07:01.389Z,395
2019-01-17T02:08:08.315Z,396
2019-01-17T02:09:15.256Z,396
2019-01-17T02:10:22.466Z,395
2019-01-17T02:11:29.675Z,395
2019-01-17T02:12:36.886Z,395
2019-01-17T02:13:43.814Z,395
2019-01-17T02:14:51.022Z,395
2019-01-17T02:15:57.691Z,395
2019-01-17T02:17:04.626Z,395
2019-01-17T02:18:11.846Z,396
2019-01-17T02:19:19.045Z,395
2019-01-17T02:20:26.244Z,395
2019-01-17T02:21:33.451Z,395
2019-01-17T02:22:40.663Z,394
2019-01-17T02:23:47.604Z,395
2019-01-17T02:24:54.823Z,395
2019-01-17T02:26:01.766Z,394
2019-01-17T02:27:08.702Z,395
2019-01-17T02:28:15.906Z,395
2019-01-17T02:29:23.129Z,394
2019-01-17T02:30:30.066Z,395
2019-01-17T02:31:37.313Z,395
2019-01-17T02:32:44.524Z,395
2019-01-17T02:33:51.473Z,394
2019-01-17T02:34:58.673Z,393
2019-01-17T02:36:05.891Z,395
2019-01-17T02:37:13.097Z,394
2019-01-17T02:38:20.323Z,394
2019-01-17T02:39:27.529Z,394
2019-01-17T02:40:34.741Z,394
2019-01-17T02:41:41.656Z,394
2019-01-17T02:42:48.857Z,395
2019-01-17T02:43:56.077Z,395
2019-01-17T02:45:03.285Z,395
2019-01-17T02:46:10.484Z,394
2019-01-17T02:47:17.685Z,395
2019-01-17T02:48:24.895Z,394
2019-01-17T02:49:31.825Z,394
2019-01-17T02:50:39.033Z,394
2019-01-17T02:51:46.249Z,394
2019-01-17T02:52:53.476Z,393
2019-01-17T02:54:00.666Z,395
2019-01-17T02:55:07.874Z,394
2019-01-17T02:56:15.077Z,394
2019-01-17T02:57:22.012Z,394
2019-01-17T02:58:28.938Z,394
2019-01-17T02:59:36.139Z,393
2019-01-17T03:00:43.345Z,394
2019-01-17T03:01:50.547Z,394
2019-01-17T03:02:57.747Z,394
2019-01-17T03:04:04.681Z,394
2019-01-17T03:05:11.885Z,393
2019-01-17T03:06:18.818Z,393
2019-01-17T03:07:26.018Z,401
2019-01-17T03:08:32.963Z,404
2019-01-17T03:09:39.888Z,402
2019-01-17T03:10:47.105Z,397
2019-01-17T03:11:54.300Z,397
2019-01-17T03:13:01.512Z,396
2019-01-17T03:14:08.447Z,396
2019-01-17T03:15:15.648Z,397
2019-01-17T03:16:22.583Z,398
2019-01-17T03:17:29.785Z,398
2019-01-17T03:18:36.709Z,396
2019-01-17T03:19:43.916Z,397
2019-01-17T03:20:51.120Z,397
2019-01-17T03:21:58.338Z,398
2019-01-17T03:23:05.536Z,397
2019-01-17T03:24:12.735Z,398
2019-01-17T03:25:19.943Z,397
2019-01-17T03:26:27.143Z,397
2019-01-17T03:27:34.344Z,397
2019-01-17T03:28:41.551Z,397
2019-01-17T03:29:48.804Z,397
2019-01-17T03:30:56.018Z,397
2019-01-17T03:32:03.255Z,397
2019-01-17T03:33:10.497Z,401
2019-01-17T03:34:17.704Z,409
2019-01-17T03:35:24.945Z,410
2019-01-17T03:36:32.100Z,409
2019-01-17T03:37:39.307Z,408
2019-01-17T03:38:46.233Z,404
2019-01-17T03:39:53.439Z,400
2019-01-17T03:41:00.641Z,399
2019-01-17T03:42:07.844Z,399
2019-01-17T03:43:15.055Z,399
2019-01-17T03:44:22.282Z,400
2019-01-17T03:45:29.209Z,399
2019-01-17T03:46:36.412Z,399
2019-01-17T03:47:43.623Z,399
2019-01-17T03:48:50.831Z,399
2019-01-17T03:49:57.765Z,397
2019-01-17T03:51:04.975Z,398
2019-01-17T03:52:12.193Z,399
2019-01-17T03:53:19.401Z,398
2019-01-17T03:54:26.602Z,398
2019-01-17T03:55:33.821Z,398
2019-01-17T03:56:40.745Z,398
2019-01-17T03:57:47.682Z,397
2019-01-17T03:58:54.619Z,397
2019-01-17T04:00:01.822Z,398
2019-01-17T04:01:09.025Z,397
2019-01-17T04:02:15.957Z,398
2019-01-17T04:03:22.617Z,398
2019-01-17T04:04:29.831Z,398
2019-01-17T04:05:37.036Z,398
2019-01-17T04:06:44.241Z,399
2019-01-17T04:07:51.444Z,399
2019-01-17T04:08:58.652Z,399
2019-01-17T04:10:05.861Z,400
2019-01-17T04:11:13.080Z,399
2019-01-17T04:12:19.732Z,399
2019-01-17T04:13:26.662Z,399
2019-01-17T04:14:33.873Z,399
2019-01-17T04:15:41.076Z,400
2019-01-17T04:16:48.313Z,399
2019-01-17T04:17:55.275Z,399
2019-01-17T04:19:02.476Z,400
2019-01-17T04:20:09.704Z,399
2019-01-17T04:21:16.916Z,400
2019-01-17T04:22:24.137Z,400
2019-01-17T04:23:31.080Z,401
2019-01-17T04:24:38.286Z,400
2019-01-17T04:25:45.489Z,401
2019-01-17T04:26:52.703Z,401
2019-01-17T04:27:59.906Z,400
2019-01-17T04:29:07.107Z,407
2019-01-17T04:30:14.308Z,407
2019-01-17T04:31:21.510Z,404
2019-01-17T04:32:28.179Z,401
2019-01-17T04:33:35.107Z,402
2019-01-17T04:34:42.309Z,402
2019-01-17T04:35:49.539Z,402
2019-01-17T04:36:56.735Z,407
2019-01-17T04:38:03.939Z,404
2019-01-17T04:39:10.875Z,402
2019-01-17T04:40:18.080Z,402
2019-01-17T04:41:25.012Z,403
2019-01-17T04:42:32.215Z,403
2019-01-17T04:43:39.425Z,404
2019-01-17T04:44:46.642Z,404
2019-01-17T04:45:53.854Z,403
2019-01-17T04:47:00.802Z,401
2019-01-17T04:48:07.738Z,400
2019-01-17T04:49:14.670Z,400
2019-01-17T04:50:21.874Z,398
2019-01-17T04:51:29.081Z,398
2019-01-17T04:52:36.009Z,397
2019-01-17T04:53:43.204Z,396
2019-01-17T04:54:50.409Z,397
2019-01-17T04:55:57.616Z,398
2019-01-17T04:57:04.592Z,397
2019-01-17T04:58:11.840Z,397
2019-01-17T04:59:18.756Z,397
2019-01-17T05:00:25.966Z,397
2019-01-17T05:01:33.177Z,397
2019-01-17T05:02:40.379Z,398
2019-01-17T05:03:47.583Z,397
2019-01-17T05:04:54.518Z,397
2019-01-17T05:06:01.733Z,397
2019-01-17T05:07:08.662Z,396
2019-01-17T05:08:15.873Z,397
2019-01-17T05:09:22.812Z,397
2019-01-17T05:10:29.753Z,397
2019-01-17T05:11:36.952Z,408
2019-01-17T05:12:44.332Z,408
2019-01-17T05:13:51.535Z,405
2019-01-17T05:14:58.737Z,404
2019-01-17T05:16:05.932Z,406
2019-01-17T05:17:13.147Z,407
2019-01-17T05:18:20.347Z,409
2019-01-17T05:19:27.570Z,409
2019-01-17T05:20:34.768Z,410
2019-01-17T05:21:41.971Z,412
2019-01-17T05:22:49.173Z,413
2019-01-17T05:23:56.371Z,416
2019-01-17T05:25:03.599Z,416
2019-01-17T05:26:10.554Z,417
2019-01-17T05:27:17.752Z,418
2019-01-17T05:28:24.964Z,419
2019-01-17T05:29:32.171Z,419
2019-01-17T05:30:39.379Z,419
2019-01-17T05:31:46.045Z,420
2019-01-17T05:32:53.252Z,419
2019-01-17T05:34:00.171Z,416
2019-01-17T05:35:07.380Z,417
2019-01-17T05:36:14.333Z,419
2019-01-17T05:37:21.535Z,418
2019-01-17T05:38:28.747Z,418
2019-01-17T05:39:35.954Z,417
2019-01-17T05:40:42.898Z,418
2019-01-17T05:41:49.827Z,420
2019-01-17T05:42:57.038Z,418
2019-01-17T05:44:04.237Z,418
2019-01-17T05:45:11.444Z,419
2019-01-17T05:46:18.669Z,420
2019-01-17T05:47:25.866Z,420
2019-01-17T05:48:33.082Z,420
2019-01-17T05:49:40.279Z,420
2019-01-17T05:50:47.210Z,420
2019-01-17T05:51:54.155Z,419
2019-01-17T05:53:01.355Z,418
2019-01-17T05:54:08.563Z,420
2019-01-17T05:55:21.023Z,417
2019-01-17T05:56:28.231Z,418
2019-01-17T05:57:35.434Z,419
2019-01-17T05:58:42.639Z,420
2019-01-17T05:59:49.843Z,421
2019-01-17T06:00:57.037Z,420
2019-01-17T06:02:04.247Z,421
2019-01-17T06:03:11.177Z,421
2019-01-17T06:04:18.101Z,419
2019-01-17T06:05:25.303Z,420
2019-01-17T06:06:34.215Z,419
2019-01-17T06:07:41.151Z,420
2019-01-17T06:08:48.369Z,421
2019-01-17T06:09:55.580Z,419
2019-01-17T06:11:02.517Z,417
2019-01-17T06:12:09.443Z,418
2019-01-17T06:13:16.396Z,418
2019-01-17T06:14:23.330Z,418
2019-01-17T06:15:30.285Z,418
2019-01-17T06:16:37.492Z,420
2019-01-17T06:17:44.419Z,419
2019-01-17T06:18:51.360Z,419
2019-01-17T06:19:58.293Z,420
2019-01-17T06:21:05.226Z,421
2019-01-17T06:22:12.155Z,420
2019-01-17T06:23:19.082Z,421
2019-01-17T06:24:26.024Z,422
2019-01-17T06:25:33.226Z,422
2019-01-17T06:26:40.444Z,421
2019-01-17T06:27:47.655Z,420
2019-01-17T06:28:54.867Z,421
2019-01-17T06:30:02.065Z,421
2019-01-17T06:31:09.278Z,421
2019-01-17T06:32:16.482Z,418
2019-01-17T06:33:23.429Z,416
2019-01-17T06:34:30.362Z,418
2019-01-17T06:35:37.576Z,420
2019-01-17T06:36:44.521Z,419
2019-01-17T06:37:51.722Z,420
2019-01-17T06:38:58.932Z,419
2019-01-17T06:40:05.886Z,421
2019-01-17T06:41:13.093Z,420
2019-01-17T06:42:20.301Z,419
2019-01-17T06:43:27.242Z,420
2019-01-17T06:44:34.438Z,419
2019-01-17T06:45:41.387Z,420
2019-01-17T06:46:48.587Z,420
2019-01-17T06:47:55.243Z,419
2019-01-17T06:49:02.451Z,420
2019-01-17T06:50:09.661Z,420
2019-01-17T06:51:16.851Z,421
2019-01-17T06:52:24.046Z,419
2019-01-17T06:53:30.982Z,419
2019-01-17T06:54:37.908Z,420
2019-01-17T06:55:45.122Z,421
2019-01-17T06:56:52.337Z,420
2019-01-17T06:57:59.547Z,421
2019-01-17T06:59:06.758Z,420
2019-01-17T07:00:13.960Z,418
2019-01-17T07:01:21.172Z,419
2019-01-17T07:02:28.374Z,418
2019-01-17T07:03:35.323Z,421
2019-01-17T07:04:42.555Z,419
2019-01-17T07:05:49.765Z,420
2019-01-17T07:06:56.974Z,420
2019-01-17T07:08:03.912Z,421
2019-01-17T07:09:11.122Z,420
2019-01-17T07:10:18.050Z,421
2019-01-17T07:11:24.987Z,420
2019-01-17T07:12:32.192Z,419
2019-01-17T07:13:39.405Z,420
2019-01-17T07:14:46.624Z,420
2019-01-17T07:15:53.830Z,421
2019-01-17T07:17:01.035Z,420
2019-01-17T07:18:08.246Z,421
2019-01-17T07:19:15.453Z,421
2019-01-17T07:20:22.659Z,423
2019-01-17T07:21:29.861Z,421
2019-01-17T07:22:36.785Z,422
2019-01-17T07:23:43.985Z,423
2019-01-17T07:24:51.182Z,423
2019-01-17T07:25:58.382Z,423
2019-01-17T07:27:05.583Z,422
2019-01-17T07:28:12.783Z,422
2019-01-17T07:29:19.713Z,423
2019-01-17T07:30:26.659Z,422
2019-01-17T07:31:33.858Z,421
2019-01-17T07:32:41.058Z,420
2019-01-17T07:33:48.254Z,420
2019-01-17T07:34:55.456Z,421
2019-01-17T07:36:02.679Z,421
2019-01-17T07:37:09.607Z,422
2019-01-17T07:38:16.822Z,421
2019-01-17T07:39:24.022Z,421
2019-01-17T07:40:30.968Z,420
2019-01-17T07:41:38.167Z,421
2019-01-17T07:42:45.375Z,422
2019-01-17T07:43:52.025Z,423
2019-01-17T07:44:59.232Z,421
2019-01-17T07:46:06.437Z,420
2019-01-17T07:47:13.364Z,421
2019-01-17T07:48:20.572Z,420
2019-01-17T07:49:27.783Z,419
2019-01-17T07:50:34.988Z,419
2019-01-17T07:51:42.219Z,421
2019-01-17T07:52:49.149Z,420
2019-01-17T07:53:56.369Z,420
2019-01-17T07:55:03.576Z,418
2019-01-17T07:56:10.775Z,418
2019-01-17T07:57:17.990Z,419
2019-01-17T07:58:25.196Z,419
2019-01-17T07:59:32.406Z,417
2019-01-17T08:00:39.608Z,417
2019-01-17T08:01:46.806Z,420
2019-01-17T08:02:54.017Z,417
2019-01-17T08:04:01.214Z,417
2019-01-17T08:05:08.424Z,417
2019-01-17T08:06:15.082Z,418
2019-01-17T08:07:22.309Z,418
2019-01-17T08:08:29.518Z,419
2019-01-17T08:09:36.736Z,418
2019-01-17T08:10:43.951Z,418
2019-01-17T08:11:51.158Z,418
2019-01-17T08:12:58.350Z,417
2019-01-17T08:14:05.546Z,417
2019-01-17T08:15:12.746Z,418
2019-01-17T08:16:19.955Z,418
2019-01-17T08:17:26.903Z,418
2019-01-17T08:18:34.119Z,418
2019-01-17T08:19:41.330Z,418
2019-01-17T08:20:48.551Z,418
2019-01-17T08:21:55.768Z,418
2019-01-17T08:23:02.697Z,419
2019-01-17T08:24:09.901Z,418
2019-01-17T08:25:17.118Z,419
2019-01-17T08:26:24.055Z,419
2019-01-17T08:27:30.982Z,418
2019-01-17T08:28:38.186Z,418
2019-01-17T08:29:45.399Z,420
2019-01-17T08:30:52.378Z,419
2019-01-17T08:31:59.597Z,419
2019-01-17T08:33:06.800Z,419
2019-01-17T08:34:13.732Z,419
2019-01-17T08:35:20.930Z,418
2019-01-17T08:36:28.130Z,419
2019-01-17T08:37:35.332Z,419
2019-01-17T08:38:42.526Z,419
2019-01-17T08:39:49.728Z,420
2019-01-17T08:40:56.930Z,419
2019-01-17T08:42:04.136Z,419
2019-01-17T08:43:11.355Z,418
2019-01-17T08:44:18.559Z,420
2019-01-17T08:45:25.781Z,421
2019-01-17T08:46:32.724Z,419
2019-01-17T08:47:39.962Z,420
2019-01-17T08:48:47.163Z,419
2019-01-17T08:49:54.362Z,419
2019-01-17T08:51:01.570Z,419
2019-01-17T08:52:08.785Z,419
2019-01-17T08:53:15.990Z,420
2019-01-17T08:54:22.906Z,420
2019-01-17T08:55:29.834Z,420
2019-01-17T08:56:36.778Z,420
2019-01-17T08:57:43.702Z,420
2019-01-17T08:58:50.652Z,421
2019-01-17T08:59:57.879Z,420
2019-01-17T09:01:05.087Z,421
2019-01-17T09:02:12.291Z,420
2019-01-17T09:03:19.489Z,419
2019-01-17T09:04:26.690Z,420
2019-01-17T09:05:33.897Z,421
2019-01-17T09:06:40.838Z,421
2019-01-17T09:07:48.047Z,420
2019-01-17T09:08:55.246Z,420
2019-01-17T09:10:02.453Z,421
2019-01-17T09:11:09.658Z,420
2019-01-17T09:12:16.875Z,421
2019-01-17T09:13:24.072Z,421
2019-01-17T09:14:31.273Z,422
2019-01-17T09:15:38.485Z,422
2019-01-17T09:16:45.424Z,422
2019-01-17T09:17:52.356Z,422
2019-01-17T09:18:59.285Z,421
2019-01-17T09:20:06.223Z,422
2019-01-17T09:21:12.878Z,423
2019-01-17T09:22:20.077Z,422
2019-01-17T09:23:27.277Z,423
2019-01-17T09:24:34.483Z,422
2019-01-17T09:25:41.678Z,421
2019-01-17T09:26:48.878Z,423
2019-01-17T09:27:56.100Z,422
2019-01-17T09:29:03.310Z,422
2019-01-17T09:30:10.536Z,424
2019-01-17T09:31:17.487Z,422
2019-01-17T09:32:24.726Z,423
2019-01-17T09:33:31.925Z,424
2019-01-17T09:34:38.859Z,424
2019-01-17T09:35:46.057Z,424
2019-01-17T09:36:53.001Z,424
2019-01-17T09:38:00.208Z,424
2019-01-17T09:39:07.128Z,424
2019-01-17T09:40:14.327Z,424
2019-01-17T09:41:21.506Z,424
2019-01-17T09:42:28.447Z,424
2019-01-17T09:43:35.673Z,424
2019-01-17T09:44:42.895Z,423
2019-01-17T09:45:49.849Z,424
2019-01-17T09:46:57.049Z,423
2019-01-17T09:48:04.250Z,423
2019-01-17T09:49:11.465Z,424
2019-01-17T09:50:18.668Z,424
2019-01-17T09:51:25.875Z,423
2019-01-17T09:52:33.085Z,423
2019-01-17T09:53:40.295Z,422
2019-01-17T09:54:47.223Z,422
2019-01-17T09:55:54.158Z,422
2019-01-17T09:57:01.370Z,421
2019-01-17T09:58:08.581Z,423
2019-01-17T09:59:15.780Z,423
2019-01-17T10:00:22.983Z,424
2019-01-17T10:01:31.550Z,423
2019-01-17T10:02:38.796Z,423
2019-01-17T10:03:46.003Z,422
2019-01-17T10:04:53.204Z,422
2019-01-17T10:05:59.870Z,423
2019-01-17T10:07:07.067Z,424
2019-01-17T10:08:14.023Z,425
2019-01-17T10:09:21.234Z,426
2019-01-17T10:10:28.449Z,426
2019-01-17T10:11:35.649Z,425
2019-01-17T10:12:42.586Z,426
2019-01-17T10:13:49.794Z,426
2019-01-17T10:14:57.004Z,426
2019-01-17T10:16:04.222Z,425
2019-01-17T10:17:11.420Z,426
2019-01-17T10:18:18.637Z,426
2019-01-17T10:19:25.583Z,427
2019-01-17T10:20:32.518Z,425
2019-01-17T10:21:39.727Z,423
2019-01-17T10:22:46.937Z,424
2019-01-17T10:23:54.151Z,424
2019-01-17T10:25:01.359Z,427
2019-01-17T10:26:08.562Z,426
2019-01-17T10:27:15.763Z,425
2019-01-17T10:28:22.975Z,427
2019-01-17T10:29:29.905Z,427
2019-01-17T10:30:37.102Z,427
2019-01-17T10:31:44.029Z,426
2019-01-17T10:32:51.019Z,425
2019-01-17T10:33:58.220Z,425
2019-01-17T10:35:05.436Z,425
2019-01-17T10:36:12.645Z,424
2019-01-17T10:37:19.868Z,425
2019-01-17T10:38:41.722Z,425
2019-01-17T10:39:48.952Z,426
2019-01-17T10:40:56.169Z,427
2019-01-17T10:42:03.379Z,426
2019-01-17T10:43:10.322Z,426
2019-01-17T10:44:17.534Z,427
2019-01-17T10:45:24.467Z,426
2019-01-17T10:46:31.673Z,423
2019-01-17T10:47:38.610Z,423
2019-01-17T10:48:45.812Z,424
2019-01-17T10:49:53.025Z,426
2019-01-17T10:51:00.227Z,427
2019-01-17T10:52:07.437Z,427
2019-01-17T10:53:14.642Z,427
2019-01-17T10:54:21.843Z,427
2019-01-17T10:55:28.780Z,426
2019-01-17T10:56:42.266Z,428
2019-01-17T10:57:49.197Z,428
2019-01-17T10:58:56.125Z,429
2019-01-17T11:00:03.337Z,429
2019-01-17T11:01:10.540Z,430
2019-01-17T11:02:17.759Z,430
2019-01-17T11:03:24.690Z,430
2019-01-17T11:04:31.900Z,429
2019-01-17T11:05:39.107Z,431
2019-01-17T11:06:46.299Z,431
2019-01-17T11:07:52.955Z,431
2019-01-17T11:08:59.884Z,430
2019-01-17T11:10:06.815Z,430
2019-01-17T11:11:14.018Z,429
2019-01-17T11:12:21.222Z,430
2019-01-17T11:13:28.185Z,428
2019-01-17T11:14:35.135Z,428
2019-01-17T11:15:42.353Z,426
2019-01-17T11:16:49.563Z,427
2019-01-17T11:17:56.767Z,427
2019-01-17T11:19:03.963Z,426
2019-01-17T11:20:10.897Z,425
2019-01-17T11:21:18.101Z,425
2019-01-17T11:22:25.325Z,424
2019-01-17T11:23:32.525Z,422
2019-01-17T11:24:39.730Z,423
2019-01-17T11:25:46.929Z,422
2019-01-17T11:26:54.142Z,422
2019-01-17T11:28:01.082Z,420
2019-01-17T11:29:08.021Z,420
2019-01-17T11:30:15.240Z,420
2019-01-17T11:31:22.179Z,421
2019-01-17T11:32:29.377Z,420
2019-01-17T11:33:36.585Z,422
2019-01-17T11:34:43.800Z,420
2019-01-17T11:35:50.465Z,420
2019-01-17T11:36:57.674Z,421
2019-01-17T11:38:04.630Z,422
2019-01-17T11:39:11.841Z,422
2019-01-17T11:40:19.066Z,421
2019-01-17T11:41:26.267Z,422
2019-01-17T11:42:33.476Z,421
2019-01-17T11:43:40.401Z,421
2019-01-17T11:44:47.389Z,421
2019-01-17T11:45:54.598Z,417
2019-01-17T11:47:01.540Z,412
2019-01-17T11:48:08.481Z,409
2019-01-17T11:49:15.691Z,406
2019-01-17T11:50:23.125Z,405
2019-01-17T11:51:30.338Z,405
2019-01-17T11:52:37.274Z,405
2019-01-17T11:53:44.184Z,405
2019-01-17T11:54:51.392Z,406
2019-01-17T11:55:58.647Z,405
2019-01-17T11:57:05.849Z,401
2019-01-17T11:58:13.057Z,400
2019-01-17T11:59:20.264Z,399
2019-01-17T12:00:27.469Z,399
2019-01-17T12:01:34.675Z,401
2019-01-17T12:02:41.886Z,399
2019-01-17T12:03:49.105Z,397
2019-01-17T12:04:56.047Z,396
2019-01-17T12:06:03.261Z,392
2019-01-17T12:07:10.728Z,394
2019-01-17T12:08:17.942Z,397
2019-01-17T12:09:25.143Z,397
2019-01-17T12:10:32.357Z,398
2019-01-17T12:11:39.298Z,398
2019-01-17T12:12:46.237Z,399
2019-01-17T12:13:53.443Z,398
2019-01-17T12:15:00.650Z,399
2019-01-17T12:16:07.875Z,400
2019-01-17T12:17:15.076Z,402
2019-01-17T12:18:22.009Z,404
2019-01-17T12:19:29.212Z,404
2019-01-17T12:20:36.424Z,405
2019-01-17T12:21:43.631Z,405
2019-01-17T12:22:50.838Z,405
2019-01-17T12:23:58.058Z,404
2019-01-17T12:25:05.002Z,406
2019-01-17T12:26:12.201Z,404
2019-01-17T12:27:19.138Z,405
2019-01-17T12:28:26.345Z,405
2019-01-17T12:29:33.551Z,406
2019-01-17T12:30:40.748Z,406
2019-01-17T12:31:47.954Z,405
2019-01-17T12:32:55.163Z,405
2019-01-17T12:34:02.370Z,406
2019-01-17T12:35:09.576Z,405
2019-01-17T12:36:16.808Z,405
2019-01-17T12:37:24.012Z,404
2019-01-17T12:38:30.939Z,406
2019-01-17T12:39:38.165Z,404
2019-01-17T12:40:45.426Z,401
2019-01-17T12:41:52.618Z,403
2019-01-17T12:42:59.832Z,409
2019-01-17T12:44:06.754Z,412
2019-01-17T12:45:13.957Z,420
2019-01-17T12:46:21.157Z,422
2019-01-17T12:47:28.373Z,425
2019-01-17T12:48:35.603Z,422
2019-01-17T12:49:41.990Z,418
2019-01-17T12:50:49.205Z,417
2019-01-17T12:51:56.407Z,415
2019-01-17T12:53:03.623Z,409
2019-01-17T12:54:10.557Z,386
2019-01-17T12:55:17.758Z,383
2019-01-17T12:56:24.962Z,388
2019-01-17T12:57:31.924Z,389
2019-01-17T12:58:39.155Z,392
2019-01-17T12:59:46.367Z,398
2019-01-17T13:00:53.571Z,402
2019-01-17T13:02:00.782Z,405
2019-01-17T13:03:07.993Z,406
2019-01-17T13:04:14.918Z,408
2019-01-17T13:05:22.153Z,406
2019-01-17T13:06:29.364Z,405
2019-01-17T13:07:36.028Z,406
2019-01-17T13:08:42.979Z,406
2019-01-17T13:09:50.192Z,407
2019-01-17T13:10:57.401Z,408
2019-01-17T13:12:04.608Z,408
2019-01-17T13:13:11.816Z,408
2019-01-17T13:14:19.039Z,407
2019-01-17T13:15:26.265Z,401
2019-01-17T13:16:33.225Z,414
2019-01-17T13:17:40.438Z,414
2019-01-17T13:18:47.660Z,414
2019-01-17T13:19:54.877Z,409
2019-01-17T13:21:02.094Z,392
2019-01-17T13:22:09.300Z,391
2019-01-17T13:23:16.528Z,390
2019-01-17T13:24:23.728Z,398
2019-01-17T13:25:30.941Z,395
2019-01-17T13:26:38.154Z,390
2019-01-17T13:27:45.367Z,389
2019-01-17T13:28:52.568Z,391
2019-01-17T13:29:59.777Z,391
2019-01-17T13:31:06.712Z,392
2019-01-17T13:32:13.930Z,389
2019-01-17T13:33:22.232Z,388
2019-01-17T13:34:29.421Z,389
2019-01-17T13:35:36.361Z,390
2019-01-17T13:36:43.578Z,390
2019-01-17T13:37:50.518Z,390
2019-01-17T13:38:57.732Z,388
2019-01-17T13:40:04.665Z,384
2019-01-17T13:41:11.611Z,388
2019-01-17T13:42:21.941Z,391
2019-01-17T13:43:29.150Z,392
2019-01-17T13:44:36.093Z,389
2019-01-17T13:45:43.015Z,386
2019-01-17T13:46:49.670Z,386
2019-01-17T13:47:56.620Z,390
2019-01-17T13:49:03.821Z,398
2019-01-17T13:50:11.050Z,402
2019-01-17T13:51:18.263Z,402
2019-01-17T13:52:25.482Z,403
2019-01-17T13:53:32.709Z,401
2019-01-17T13:54:39.960Z,402
2019-01-17T13:55:46.618Z,403
2019-01-17T13:56:53.563Z,406
2019-01-17T13:58:00.768Z,407
2019-01-17T13:59:07.963Z,408
2019-01-17T14:00:15.168Z,407
2019-01-17T14:01:22.116Z,405
2019-01-17T14:02:29.334Z,405
2019-01-17T14:03:36.011Z,402
2019-01-17T14:04:43.214Z,400
2019-01-17T14:05:50.145Z,393
2019-01-17T14:06:57.352Z,392
2019-01-17T14:08:04.563Z,401
2019-01-17T14:09:11.493Z,404
2019-01-17T14:10:18.698Z,405
2019-01-17T14:11:25.914Z,407
2019-01-17T14:12:33.126Z,407
2019-01-17T14:13:40.059Z,406
2019-01-17T14:14:47.282Z,407
2019-01-17T14:15:54.702Z,419
2019-01-17T14:17:01.649Z,422
2019-01-17T14:18:08.855Z,416
2019-01-17T14:19:15.796Z,406
2019-01-17T14:20:23.009Z,414
2019-01-17T14:21:30.216Z,415
2019-01-17T14:22:37.418Z,423
2019-01-17T14:23:44.627Z,424
2019-01-17T14:24:51.840Z,422
2019-01-17T14:25:59.047Z,415
2019-01-17T14:27:05.990Z,404
2019-01-17T14:28:13.206Z,404
2019-01-17T14:29:20.441Z,401
2019-01-17T14:30:27.664Z,400
2019-01-17T14:31:34.874Z,403
2019-01-17T14:32:42.093Z,403
2019-01-17T14:33:49.296Z,403
2019-01-17T14:34:55.975Z,404
2019-01-17T14:36:03.184Z,405
2019-01-17T14:37:10.394Z,406
2019-01-17T14:38:17.604Z,405
2019-01-17T14:39:24.819Z,405
2019-01-17T14:40:32.034Z,406
2019-01-17T14:41:39.252Z,406
2019-01-17T14:42:46.179Z,406
2019-01-17T14:43:53.388Z,406
2019-01-17T14:45:00.666Z,406
2019-01-17T14:46:08.077Z,407
2019-01-17T14:47:15.287Z,415
2019-01-17T14:48:22.505Z,421
2019-01-17T14:49:29.716Z,428
2019-01-17T14:50:36.918Z,428
2019-01-17T14:51:44.119Z,429
2019-01-17T14:52:51.325Z,428
2019-01-17T14:53:58.528Z,427
2019-01-17T14:55:05.741Z,428
2019-01-17T14:56:12.941Z,428
2019-01-17T14:57:21.792Z,429
2019-01-17T14:58:29.005Z,429
2019-01-17T14:59:36.229Z,430
2019-01-17T15:00:43.442Z,431
2019-01-17T15:01:50.664Z,428
2019-01-17T15:02:57.611Z,429
2019-01-17T15:04:04.545Z,428
2019-01-17T15:05:11.749Z,432
2019-01-17T15:06:18.949Z,431
2019-01-17T15:07:26.161Z,431
2019-01-17T15:08:33.369Z,433
2019-01-17T15:09:40.578Z,432
2019-01-17T15:10:47.798Z,433
2019-01-17T15:11:54.742Z,434
2019-01-17T15:13:01.956Z,431
2019-01-17T15:14:08.881Z,433
2019-01-17T15:15:15.815Z,434
2019-01-17T15:16:23.028Z,434
2019-01-17T15:17:30.243Z,435
2019-01-17T15:18:37.451Z,437
2019-01-17T15:19:44.106Z,435
2019-01-17T23:00:07.091Z,433
2019-01-17T23:01:14.317Z,431
2019-01-17T23:02:21.247Z,424
2019-01-17T23:03:28.459Z,425
2019-01-17T23:04:35.387Z,428